sensor_id;sensor_type;location;lat;lon;timestamp;P1;durP1;ratioP1;P2;durP2;ratioP2
72569;SDS011;60594;50.204;8.844;2022-10-16T00:01:15;4.70;;;2.42;;
72569;SDS011;60594;50.204;8.844;2022-10-16T00:03:44;4.05;;;1.98;;
72569;SDS011;60594;50.204;8.844;2022-10-16T00:06:11;4.75;;;2.35;;
72569;SDS011;60594;50.204;8.844;2022-10-16T00:08:39;4.90;;;2.22;;
72569;SDS011;60594;50.204;8.844;2022-10-16T00:11:07;4.57;;;2.30;;
72569;SDS011;60594;50.204;8.844;2022-10-16T00:13:38;5.35;;;2.80;;
72569;SDS011;60594;50.204;8.844;2022-10-16T00:16:06;5.00;;;2.72;;
72569;SDS011;60594;50.204;8.844;2022-10-16T00:18:33;4.72;;;2.83;;
72569;SDS011;60594;50.204;8.844;2022-10-16T00:21:06;6.78;;;2.28;;
72569;SDS011;60594;50.204;8.844;2022-10-16T00:23:53;4.32;;;2.20;;
72569;SDS011;60594;50.204;8.844;2022-10-16T00:26:25;5.28;;;3.03;;
72569;SDS011;60594;50.204;8.844;2022-10-16T00:28:52;4.57;;;2.30;;
72569;SDS011;60594;50.204;8.844;2022-10-16T00:31:20;4.00;;;2.00;;
72569;SDS011;60594;50.204;8.844;2022-10-16T00:33:48;4.53;;;2.20;;
72569;SDS011;60594;50.204;8.844;2022-10-16T00:36:16;5.70;;;2.42;;
72569;SDS011;60594;50.204;8.844;2022-10-16T00:38:44;6.75;;;2.90;;
72569;SDS011;60594;50.204;8.844;2022-10-16T00:41:13;5.32;;;3.72;;
72569;SDS011;60594;50.204;8.844;2022-10-16T00:46:27;6.30;;;2.92;;
72569;SDS011;60594;50.204;8.844;2022-10-16T00:49:14;5.20;;;2.78;;
72569;SDS011;60594;50.204;8.844;2022-10-16T00:51:47;5.80;;;3.22;;
72569;SDS011;60594;50.204;8.844;2022-10-16T00:54:17;5.38;;;2.83;;
72569;SDS011;60594;50.204;8.844;2022-10-16T00:56:47;6.25;;;3.05;;
72569;SDS011;60594;50.204;8.844;2022-10-16T00:59:16;8.63;;;3.53;;
72569;SDS011;60594;50.204;8.844;2022-10-16T01:01:46;6.63;;;3.53;;
72569;SDS011;60594;50.204;8.844;2022-10-16T01:04:12;6.45;;;2.67;;
72569;SDS011;60594;50.204;8.844;2022-10-16T01:09:26;8.43;;;3.20;;
72569;SDS011;60594;50.204;8.844;2022-10-16T01:12:08;6.13;;;2.90;;
72569;SDS011;60594;50.204;8.844;2022-10-16T01:17:11;5.75;;;2.92;;
72569;SDS011;60594;50.204;8.844;2022-10-16T01:19:50;5.03;;;2.85;;
72569;SDS011;60594;50.204;8.844;2022-10-16T01:22:35;7.13;;;3.83;;
72569;SDS011;60594;50.204;8.844;2022-10-16T01:25:20;6.28;;;2.83;;
72569;SDS011;60594;50.204;8.844;2022-10-16T01:27:59;5.70;;;2.58;;
72569;SDS011;60594;50.204;8.844;2022-10-16T01:30:29;5.70;;;2.60;;
72569;SDS011;60594;50.204;8.844;2022-10-16T01:33:00;4.95;;;2.58;;
72569;SDS011;60594;50.204;8.844;2022-10-16T01:35:48;6.88;;;2.88;;
72569;SDS011;60594;50.204;8.844;2022-10-16T01:38:21;6.97;;;2.60;;
72569;SDS011;60594;50.204;8.844;2022-10-16T01:41:15;4.78;;;2.50;;
72569;SDS011;60594;50.204;8.844;2022-10-16T01:43:48;5.25;;;2.58;;
72569;SDS011;60594;50.204;8.844;2022-10-16T01:46:19;4.72;;;2.45;;
72569;SDS011;60594;50.204;8.844;2022-10-16T01:48:48;6.35;;;2.40;;
72569;SDS011;60594;50.204;8.844;2022-10-16T01:51:16;4.55;;;2.17;;
72569;SDS011;60594;50.204;8.844;2022-10-16T01:53:47;5.72;;;2.60;;
72569;SDS011;60594;50.204;8.844;2022-10-16T01:56:15;6.97;;;2.72;;
72569;SDS011;60594;50.204;8.844;2022-10-16T01:58:45;6.32;;;2.80;;
72569;SDS011;60594;50.204;8.844;2022-10-16T02:01:16;4.65;;;2.28;;
72569;SDS011;60594;50.204;8.844;2022-10-16T02:03:48;5.80;;;2.10;;
72569;SDS011;60594;50.204;8.844;2022-10-16T02:06:17;5.75;;;2.35;;
72569;SDS011;60594;50.204;8.844;2022-10-16T02:08:44;5.18;;;2.10;;
72569;SDS011;60594;50.204;8.844;2022-10-16T02:11:10;5.32;;;2.35;;
72569;SDS011;60594;50.204;8.844;2022-10-16T02:13:39;8.00;;;2.30;;
72569;SDS011;60594;50.204;8.844;2022-10-16T02:16:06;5.45;;;2.45;;
72569;SDS011;60594;50.204;8.844;2022-10-16T02:21:13;4.00;;;1.88;;
72569;SDS011;60594;50.204;8.844;2022-10-16T02:26:25;3.30;;;1.90;;
72569;SDS011;60594;50.204;8.844;2022-10-16T02:28:59;4.45;;;1.83;;
72569;SDS011;60594;50.204;8.844;2022-10-16T02:31:31;4.05;;;1.92;;
72569;SDS011;60594;50.204;8.844;2022-10-16T02:34:01;3.55;;;1.50;;
72569;SDS011;60594;50.204;8.844;2022-10-16T02:36:30;5.80;;;1.50;;
72569;SDS011;60594;50.204;8.844;2022-10-16T02:38:58;3.53;;;1.58;;
72569;SDS011;60594;50.204;8.844;2022-10-16T02:43:53;4.15;;;1.80;;
72569;SDS011;60594;50.204;8.844;2022-10-16T02:46:20;4.00;;;1.73;;
72569;SDS011;60594;50.204;8.844;2022-10-16T02:48:47;3.80;;;1.58;;
72569;SDS011;60594;50.204;8.844;2022-10-16T02:51:13;4.95;;;1.50;;
72569;SDS011;60594;50.204;8.844;2022-10-16T02:53:40;3.67;;;1.58;;
72569;SDS011;60594;50.204;8.844;2022-10-16T02:56:06;4.30;;;1.83;;
72569;SDS011;60594;50.204;8.844;2022-10-16T02:58:33;4.22;;;1.40;;
72569;SDS011;60594;50.204;8.844;2022-10-16T03:01:00;3.72;;;1.65;;
72569;SDS011;60594;50.204;8.844;2022-10-16T03:03:26;3.90;;;1.70;;
72569;SDS011;60594;50.204;8.844;2022-10-16T03:05:52;5.32;;;1.88;;
72569;SDS011;60594;50.204;8.844;2022-10-16T03:08:19;5.18;;;1.70;;
72569;SDS011;60594;50.204;8.844;2022-10-16T03:10:49;5.60;;;1.40;;
72569;SDS011;60594;50.204;8.844;2022-10-16T03:13:16;6.60;;;1.73;;
72569;SDS011;60594;50.204;8.844;2022-10-16T03:15:43;3.95;;;1.40;;
72569;SDS011;60594;50.204;8.844;2022-10-16T03:18:09;2.78;;;1.25;;
72569;SDS011;60594;50.204;8.844;2022-10-16T03:20:36;3.35;;;1.55;;
72569;SDS011;60594;50.204;8.844;2022-10-16T03:23:02;3.33;;;1.38;;
72569;SDS011;60594;50.204;8.844;2022-10-16T03:25:28;3.33;;;1.55;;
72569;SDS011;60594;50.204;8.844;2022-10-16T03:27:55;3.90;;;1.83;;
72569;SDS011;60594;50.204;8.844;2022-10-16T03:30:21;2.92;;;1.13;;
72569;SDS011;60594;50.204;8.844;2022-10-16T03:32:47;2.67;;;1.05;;
72569;SDS011;60594;50.204;8.844;2022-10-16T03:35:14;2.92;;;1.30;;
72569;SDS011;60594;50.204;8.844;2022-10-16T03:37:40;2.85;;;1.17;;
72569;SDS011;60594;50.204;8.844;2022-10-16T03:40:06;3.25;;;1.30;;
72569;SDS011;60594;50.204;8.844;2022-10-16T03:42:33;3.10;;;1.17;;
72569;SDS011;60594;50.204;8.844;2022-10-16T03:44:59;4.78;;;1.30;;
72569;SDS011;60594;50.204;8.844;2022-10-16T03:47:26;3.00;;;1.13;;
72569;SDS011;60594;50.204;8.844;2022-10-16T03:49:52;3.38;;;1.15;;
72569;SDS011;60594;50.204;8.844;2022-10-16T03:52:18;3.10;;;1.10;;
72569;SDS011;60594;50.204;8.844;2022-10-16T03:54:45;3.00;;;1.20;;
72569;SDS011;60594;50.204;8.844;2022-10-16T03:57:11;2.42;;;1.08;;
72569;SDS011;60594;50.204;8.844;2022-10-16T03:59:37;3.33;;;1.15;;
72569;SDS011;60594;50.204;8.844;2022-10-16T04:02:04;3.20;;;1.27;;
72569;SDS011;60594;50.204;8.844;2022-10-16T04:04:30;5.53;;;1.30;;
72569;SDS011;60594;50.204;8.844;2022-10-16T04:06:56;3.38;;;1.00;;
72569;SDS011;60594;50.204;8.844;2022-10-16T04:09:23;2.92;;;1.10;;
72569;SDS011;60594;50.204;8.844;2022-10-16T04:11:49;2.85;;;1.00;;
72569;SDS011;60594;50.204;8.844;2022-10-16T04:14:15;3.20;;;1.13;;
72569;SDS011;60594;50.204;8.844;2022-10-16T04:16:42;3.35;;;1.08;;
72569;SDS011;60594;50.204;8.844;2022-10-16T04:19:08;2.63;;;1.15;;
72569;SDS011;60594;50.204;8.844;2022-10-16T04:21:36;1.98;;;1.02;;
72569;SDS011;60594;50.204;8.844;2022-10-16T04:24:03;2.53;;;1.17;;
72569;SDS011;60594;50.204;8.844;2022-10-16T04:26:29;3.58;;;1.10;;
72569;SDS011;60594;50.204;8.844;2022-10-16T04:28:56;2.92;;;1.30;;
72569;SDS011;60594;50.204;8.844;2022-10-16T04:31:22;3.05;;;1.10;;
72569;SDS011;60594;50.204;8.844;2022-10-16T04:33:48;2.50;;;1.10;;
72569;SDS011;60594;50.204;8.844;2022-10-16T04:36:15;4.22;;;1.30;;
72569;SDS011;60594;50.204;8.844;2022-10-16T04:38:41;2.25;;;0.90;;
72569;SDS011;60594;50.204;8.844;2022-10-16T04:41:07;2.67;;;1.10;;
72569;SDS011;60594;50.204;8.844;2022-10-16T04:43:34;3.10;;;1.08;;
72569;SDS011;60594;50.204;8.844;2022-10-16T04:46:00;2.60;;;1.15;;
72569;SDS011;60594;50.204;8.844;2022-10-16T04:48:27;4.10;;;1.65;;
72569;SDS011;60594;50.204;8.844;2022-10-16T04:50:54;2.75;;;1.20;;
72569;SDS011;60594;50.204;8.844;2022-10-16T04:53:21;2.85;;;1.45;;
72569;SDS011;60594;50.204;8.844;2022-10-16T04:55:47;3.65;;;1.10;;
72569;SDS011;60594;50.204;8.844;2022-10-16T04:58:13;4.07;;;1.45;;
72569;SDS011;60594;50.204;8.844;2022-10-16T05:00:40;3.10;;;1.13;;
72569;SDS011;60594;50.204;8.844;2022-10-16T05:03:06;3.50;;;1.27;;
72569;SDS011;60594;50.204;8.844;2022-10-16T05:05:35;4.82;;;1.80;;
72569;SDS011;60594;50.204;8.844;2022-10-16T05:08:01;3.47;;;1.50;;
72569;SDS011;60594;50.204;8.844;2022-10-16T05:10:28;3.22;;;1.63;;
72569;SDS011;60594;50.204;8.844;2022-10-16T05:12:55;3.10;;;1.30;;
72569;SDS011;60594;50.204;8.844;2022-10-16T05:15:21;3.78;;;1.35;;
72569;SDS011;60594;50.204;8.844;2022-10-16T05:17:53;3.53;;;1.63;;
72569;SDS011;60594;50.204;8.844;2022-10-16T05:20:20;3.17;;;1.33;;
72569;SDS011;60594;50.204;8.844;2022-10-16T05:22:47;3.42;;;2.03;;
72569;SDS011;60594;50.204;8.844;2022-10-16T05:25:14;3.38;;;1.52;;
72569;SDS011;60594;50.204;8.844;2022-10-16T05:27:40;4.07;;;1.40;;
72569;SDS011;60594;50.204;8.844;2022-10-16T05:30:07;3.13;;;1.55;;
72569;SDS011;60594;50.204;8.844;2022-10-16T05:32:33;3.30;;;1.50;;
72569;SDS011;60594;50.204;8.844;2022-10-16T05:35:00;3.65;;;1.83;;
72569;SDS011;60594;50.204;8.844;2022-10-16T05:37:29;5.07;;;1.75;;
72569;SDS011;60594;50.204;8.844;2022-10-16T05:39:55;4.03;;;1.60;;
72569;SDS011;60594;50.204;8.844;2022-10-16T05:42:22;3.13;;;1.40;;
72569;SDS011;60594;50.204;8.844;2022-10-16T05:44:48;3.83;;;1.50;;
72569;SDS011;60594;50.204;8.844;2022-10-16T05:47:14;4.78;;;1.42;;
72569;SDS011;60594;50.204;8.844;2022-10-16T05:49:41;3.45;;;1.67;;
72569;SDS011;60594;50.204;8.844;2022-10-16T05:52:07;3.42;;;1.38;;
72569;SDS011;60594;50.204;8.844;2022-10-16T05:54:33;3.08;;;1.30;;
72569;SDS011;60594;50.204;8.844;2022-10-16T05:57:00;4.53;;;1.67;;
72569;SDS011;60594;50.204;8.844;2022-10-16T05:59:26;4.32;;;1.70;;
72569;SDS011;60594;50.204;8.844;2022-10-16T06:01:52;5.60;;;1.67;;
72569;SDS011;60594;50.204;8.844;2022-10-16T06:04:19;3.95;;;1.63;;
72569;SDS011;60594;50.204;8.844;2022-10-16T06:06:45;3.22;;;1.48;;
72569;SDS011;60594;50.204;8.844;2022-10-16T06:09:12;3.75;;;1.55;;
72569;SDS011;60594;50.204;8.844;2022-10-16T06:11:38;3.00;;;1.40;;
72569;SDS011;60594;50.204;8.844;2022-10-16T06:14:05;3.17;;;1.50;;
72569;SDS011;60594;50.204;8.844;2022-10-16T06:16:33;5.32;;;1.50;;
72569;SDS011;60594;50.204;8.844;2022-10-16T06:21:28;2.83;;;1.40;;
72569;SDS011;60594;50.204;8.844;2022-10-16T06:23:55;3.35;;;1.50;;
72569;SDS011;60594;50.204;8.844;2022-10-16T06:26:24;4.47;;;1.50;;
72569;SDS011;60594;50.204;8.844;2022-10-16T06:28:53;4.03;;;1.80;;
72569;SDS011;60594;50.204;8.844;2022-10-16T06:31:22;3.30;;;1.50;;
72569;SDS011;60594;50.204;8.844;2022-10-16T06:33:50;4.13;;;1.90;;
72569;SDS011;60594;50.204;8.844;2022-10-16T06:36:17;3.75;;;1.70;;
72569;SDS011;60594;50.204;8.844;2022-10-16T06:38:45;5.07;;;2.40;;
72569;SDS011;60594;50.204;8.844;2022-10-16T06:41:15;6.15;;;2.30;;
72569;SDS011;60594;50.204;8.844;2022-10-16T06:43:43;6.18;;;2.38;;
72569;SDS011;60594;50.204;8.844;2022-10-16T06:46:11;8.07;;;3.00;;
72569;SDS011;60594;50.204;8.844;2022-10-16T06:48:39;6.55;;;3.25;;
72569;SDS011;60594;50.204;8.844;2022-10-16T06:51:08;9.00;;;4.35;;
72569;SDS011;60594;50.204;8.844;2022-10-16T06:53:38;9.95;;;4.18;;
72569;SDS011;60594;50.204;8.844;2022-10-16T06:56:13;9.38;;;4.90;;
72569;SDS011;60594;50.204;8.844;2022-10-16T06:58:41;11.55;;;5.13;;
72569;SDS011;60594;50.204;8.844;2022-10-16T07:01:10;10.07;;;5.15;;
72569;SDS011;60594;50.204;8.844;2022-10-16T07:03:40;11.13;;;5.30;;
72569;SDS011;60594;50.204;8.844;2022-10-16T07:06:09;10.13;;;4.82;;
72569;SDS011;60594;50.204;8.844;2022-10-16T07:08:39;9.23;;;3.90;;
72569;SDS011;60594;50.204;8.844;2022-10-16T07:11:08;6.72;;;3.42;;
72569;SDS011;60594;50.204;8.844;2022-10-16T07:13:40;6.93;;;3.30;;
72569;SDS011;60594;50.204;8.844;2022-10-16T07:16:09;6.43;;;3.10;;
72569;SDS011;60594;50.204;8.844;2022-10-16T07:18:44;7.45;;;3.58;;
72569;SDS011;60594;50.204;8.844;2022-10-16T07:21:13;7.22;;;3.35;;
72569;SDS011;60594;50.204;8.844;2022-10-16T07:23:44;7.38;;;3.40;;
72569;SDS011;60594;50.204;8.844;2022-10-16T07:26:11;8.73;;;3.65;;
72569;SDS011;60594;50.204;8.844;2022-10-16T07:28:37;6.20;;;3.13;;
72569;SDS011;60594;50.204;8.844;2022-10-16T07:31:06;7.97;;;3.10;;
72569;SDS011;60594;50.204;8.844;2022-10-16T07:33:37;5.93;;;3.03;;
72569;SDS011;60594;50.204;8.844;2022-10-16T07:36:04;5.68;;;3.13;;
72569;SDS011;60594;50.204;8.844;2022-10-16T07:38:32;8.07;;;3.67;;
72569;SDS011;60594;50.204;8.844;2022-10-16T07:41:09;8.45;;;3.58;;
72569;SDS011;60594;50.204;8.844;2022-10-16T07:43:39;6.60;;;3.15;;
72569;SDS011;60594;50.204;8.844;2022-10-16T07:46:05;6.65;;;3.25;;
72569;SDS011;60594;50.204;8.844;2022-10-16T07:48:33;6.70;;;3.75;;
72569;SDS011;60594;50.204;8.844;2022-10-16T07:51:01;6.20;;;2.45;;
72569;SDS011;60594;50.204;8.844;2022-10-16T07:53:30;5.63;;;2.67;;
72569;SDS011;60594;50.204;8.844;2022-10-16T07:56:00;5.88;;;2.53;;
72569;SDS011;60594;50.204;8.844;2022-10-16T07:58:28;5.22;;;2.50;;
72569;SDS011;60594;50.204;8.844;2022-10-16T08:00:55;5.00;;;2.55;;
72569;SDS011;60594;50.204;8.844;2022-10-16T08:03:22;7.45;;;3.10;;
72569;SDS011;60594;50.204;8.844;2022-10-16T08:05:49;6.00;;;2.75;;
72569;SDS011;60594;50.204;8.844;2022-10-16T08:08:17;5.57;;;3.15;;
72569;SDS011;60594;50.204;8.844;2022-10-16T08:10:44;5.28;;;2.72;;
72569;SDS011;60594;50.204;8.844;2022-10-16T08:13:11;5.68;;;3.30;;
72569;SDS011;60594;50.204;8.844;2022-10-16T08:15:38;6.15;;;3.13;;
72569;SDS011;60594;50.204;8.844;2022-10-16T08:18:05;4.95;;;2.55;;
72569;SDS011;60594;50.204;8.844;2022-10-16T08:20:32;10.18;;;5.75;;
72569;SDS011;60594;50.204;8.844;2022-10-16T08:22:59;7.13;;;2.75;;
72569;SDS011;60594;50.204;8.844;2022-10-16T08:25:26;5.00;;;2.67;;
72569;SDS011;60594;50.204;8.844;2022-10-16T08:27:56;5.15;;;2.67;;
72569;SDS011;60594;50.204;8.844;2022-10-16T08:30:23;5.55;;;2.75;;
72569;SDS011;60594;50.204;8.844;2022-10-16T08:32:50;6.03;;;2.92;;
72569;SDS011;60594;50.204;8.844;2022-10-16T08:35:17;4.93;;;2.80;;
72569;SDS011;60594;50.204;8.844;2022-10-16T08:37:44;6.25;;;2.70;;
72569;SDS011;60594;50.204;8.844;2022-10-16T08:40:20;5.88;;;2.60;;
72569;SDS011;60594;50.204;8.844;2022-10-16T08:48:43;4.35;;;2.22;;
72569;SDS011;60594;50.204;8.844;2022-10-16T08:51:26;6.65;;;3.10;;
72569;SDS011;60594;50.204;8.844;2022-10-16T08:54:02;7.03;;;2.70;;
72569;SDS011;60594;50.204;8.844;2022-10-16T08:56:30;6.00;;;3.03;;
72569;SDS011;60594;50.204;8.844;2022-10-16T08:58:57;5.55;;;2.95;;
72569;SDS011;60594;50.204;8.844;2022-10-16T09:12:41;5.63;;;2.97;;
72569;SDS011;60594;50.204;8.844;2022-10-16T09:15:39;6.18;;;3.00;;
72569;SDS011;60594;50.204;8.844;2022-10-16T09:23:33;6.85;;;3.45;;
72569;SDS011;60594;50.204;8.844;2022-10-16T09:26:02;6.85;;;4.13;;
72569;SDS011;60594;50.204;8.844;2022-10-16T09:28:29;6.80;;;3.15;;
72569;SDS011;60594;50.204;8.844;2022-10-16T09:30:56;9.27;;;3.83;;
72569;SDS011;60594;50.204;8.844;2022-10-16T09:33:23;6.72;;;3.83;;
72569;SDS011;60594;50.204;8.844;2022-10-16T09:35:59;7.13;;;3.30;;
72569;SDS011;60594;50.204;8.844;2022-10-16T09:38:30;6.93;;;3.47;;
72569;SDS011;60594;50.204;8.844;2022-10-16T09:41:00;7.50;;;3.83;;
72569;SDS011;60594;50.204;8.844;2022-10-16T09:46:20;5.80;;;2.95;;
72569;SDS011;60594;50.204;8.844;2022-10-16T09:48:58;5.28;;;2.00;;
72569;SDS011;60594;50.204;8.844;2022-10-16T09:51:45;4.05;;;2.33;;
72569;SDS011;60594;50.204;8.844;2022-10-16T09:54:15;3.97;;;1.88;;
72569;SDS011;60594;50.204;8.844;2022-10-16T09:56:44;4.38;;;1.95;;
72569;SDS011;60594;50.204;8.844;2022-10-16T09:59:18;3.55;;;1.58;;
72569;SDS011;60594;50.204;8.844;2022-10-16T10:01:48;3.75;;;1.80;;
72569;SDS011;60594;50.204;8.844;2022-10-16T10:04:20;3.17;;;1.67;;
72569;SDS011;60594;50.204;8.844;2022-10-16T10:06:50;3.97;;;1.60;;
72569;SDS011;60594;50.204;8.844;2022-10-16T10:09:25;4.43;;;2.25;;
72569;SDS011;60594;50.204;8.844;2022-10-16T10:11:59;3.55;;;1.75;;
72569;SDS011;60594;50.204;8.844;2022-10-16T10:17:19;4.95;;;1.52;;
72569;SDS011;60594;50.204;8.844;2022-10-16T10:19:55;4.47;;;1.80;;
72569;SDS011;60594;50.204;8.844;2022-10-16T10:22:43;3.70;;;1.73;;
72569;SDS011;60594;50.204;8.844;2022-10-16T10:36:44;4.65;;;2.05;;
72569;SDS011;60594;50.204;8.844;2022-10-16T10:39:25;6.75;;;3.42;;
72569;SDS011;60594;50.204;8.844;2022-10-16T10:44:50;8.38;;;3.53;;
72569;SDS011;60594;50.204;8.844;2022-10-16T11:02:09;7.97;;;4.30;;
72569;SDS011;60594;50.204;8.844;2022-10-16T11:07:30;9.75;;;4.65;;
72569;SDS011;60594;50.204;8.844;2022-10-16T11:10:09;9.57;;;5.47;;
72569;SDS011;60594;50.204;8.844;2022-10-16T11:12:48;9.25;;;5.00;;
72569;SDS011;60594;50.204;8.844;2022-10-16T11:15:27;9.93;;;5.88;;
72569;SDS011;60594;50.204;8.844;2022-10-16T11:17:59;9.30;;;4.82;;
72569;SDS011;60594;50.204;8.844;2022-10-16T11:20:45;11.27;;;5.20;;
72569;SDS011;60594;50.204;8.844;2022-10-16T11:23:39;13.13;;;7.05;;
72569;SDS011;60594;50.204;8.844;2022-10-16T11:26:14;11.38;;;5.43;;
72569;SDS011;60594;50.204;8.844;2022-10-16T11:28:45;11.35;;;6.05;;
72569;SDS011;60594;50.204;8.844;2022-10-16T11:31:17;11.20;;;5.82;;
72569;SDS011;60594;50.204;8.844;2022-10-16T11:36:39;11.20;;;5.78;;
72569;SDS011;60594;50.204;8.844;2022-10-16T11:39:20;11.10;;;4.90;;
72569;SDS011;60594;50.204;8.844;2022-10-16T11:41:48;9.07;;;5.10;;
72569;SDS011;60594;50.204;8.844;2022-10-16T11:49:38;10.30;;;6.05;;
72569;SDS011;60594;50.204;8.844;2022-10-16T11:57:49;10.30;;;5.50;;
72569;SDS011;60594;50.204;8.844;2022-10-16T12:00:23;10.15;;;5.07;;
72569;SDS011;60594;50.204;8.844;2022-10-16T12:05:48;9.93;;;5.80;;
72569;SDS011;60594;50.204;8.844;2022-10-16T12:08:17;11.52;;;6.75;;
72569;SDS011;60594;50.204;8.844;2022-10-16T12:10:45;11.48;;;7.13;;
72569;SDS011;60594;50.204;8.844;2022-10-16T12:13:30;10.55;;;5.80;;
72569;SDS011;60594;50.204;8.844;2022-10-16T12:16:22;9.95;;;5.68;;
72569;SDS011;60594;50.204;8.844;2022-10-16T12:18:50;12.50;;;6.55;;
72569;SDS011;60594;50.204;8.844;2022-10-16T12:21:36;7.63;;;4.40;;
72569;SDS011;60594;50.204;8.844;2022-10-16T12:24:03;8.75;;;4.68;;
72569;SDS011;60594;50.204;8.844;2022-10-16T12:26:38;7.40;;;3.60;;
72569;SDS011;60594;50.204;8.844;2022-10-16T12:32:00;5.53;;;3.13;;
72569;SDS011;60594;50.204;8.844;2022-10-16T12:34:40;4.85;;;2.80;;
72569;SDS011;60594;50.204;8.844;2022-10-16T12:37:20;5.82;;;3.22;;
72569;SDS011;60594;50.204;8.844;2022-10-16T12:39:49;4.45;;;2.65;;
72569;SDS011;60594;50.204;8.844;2022-10-16T12:42:23;5.22;;;2.70;;
72569;SDS011;60594;50.204;8.844;2022-10-16T12:44:54;5.38;;;2.72;;
72569;SDS011;60594;50.204;8.844;2022-10-16T12:47:36;4.93;;;2.58;;
72569;SDS011;60594;50.204;8.844;2022-10-16T12:50:21;6.57;;;2.60;;
72569;SDS011;60594;50.204;8.844;2022-10-16T12:52:51;4.25;;;2.75;;
72569;SDS011;60594;50.204;8.844;2022-10-16T12:55:18;4.20;;;2.55;;
72569;SDS011;60594;50.204;8.844;2022-10-16T12:57:56;4.88;;;2.35;;
72569;SDS011;60594;50.204;8.844;2022-10-16T13:00:28;3.90;;;2.13;;
72569;SDS011;60594;50.204;8.844;2022-10-16T13:03:24;3.50;;;1.90;;
72569;SDS011;60594;50.204;8.844;2022-10-16T13:17:24;3.08;;;1.67;;
72569;SDS011;60594;50.204;8.844;2022-10-16T13:19:58;3.75;;;2.50;;
72569;SDS011;60594;50.204;8.844;2022-10-16T13:25:37;3.28;;;1.58;;
72569;SDS011;60594;50.204;8.844;2022-10-16T13:28:07;3.85;;;1.80;;
72569;SDS011;60594;50.204;8.844;2022-10-16T13:30:54;3.95;;;1.63;;
72569;SDS011;60594;50.204;8.844;2022-10-16T13:33:27;5.65;;;2.30;;
72569;SDS011;60594;50.204;8.844;2022-10-16T13:35:56;9.38;;;4.78;;
72569;SDS011;60594;50.204;8.844;2022-10-16T13:38:27;4.68;;;2.20;;
72569;SDS011;60594;50.204;8.844;2022-10-16T13:41:05;3.58;;;1.70;;
72569;SDS011;60594;50.204;8.844;2022-10-16T13:43:49;4.32;;;2.10;;
72569;SDS011;60594;50.204;8.844;2022-10-16T13:46:19;3.63;;;1.95;;
72569;SDS011;60594;50.204;8.844;2022-10-16T13:48:58;4.25;;;1.75;;
72569;SDS011;60594;50.204;8.844;2022-10-16T13:51:27;4.20;;;1.77;;
72569;SDS011;60594;50.204;8.844;2022-10-16T13:53:55;3.92;;;1.83;;
72569;SDS011;60594;50.204;8.844;2022-10-16T13:56:27;3.40;;;1.63;;
72569;SDS011;60594;50.204;8.844;2022-10-16T13:59:06;3.85;;;2.00;;
72569;SDS011;60594;50.204;8.844;2022-10-16T14:01:48;4.20;;;2.00;;
72569;SDS011;60594;50.204;8.844;2022-10-16T14:04:15;3.80;;;1.90;;
72569;SDS011;60594;50.204;8.844;2022-10-16T14:06:43;3.35;;;1.70;;
72569;SDS011;60594;50.204;8.844;2022-10-16T14:11:53;4.30;;;1.90;;
72569;SDS011;60594;50.204;8.844;2022-10-16T14:14:31;3.30;;;1.65;;
72569;SDS011;60594;50.204;8.844;2022-10-16T14:17:05;3.95;;;1.70;;
72569;SDS011;60594;50.204;8.844;2022-10-16T14:19:31;3.40;;;1.60;;
72569;SDS011;60594;50.204;8.844;2022-10-16T14:21:58;3.97;;;2.22;;
72569;SDS011;60594;50.204;8.844;2022-10-16T14:24:31;3.40;;;1.92;;
72569;SDS011;60594;50.204;8.844;2022-10-16T14:27:00;3.50;;;1.80;;
72569;SDS011;60594;50.204;8.844;2022-10-16T14:29:28;3.85;;;1.80;;
72569;SDS011;60594;50.204;8.844;2022-10-16T14:34:37;3.38;;;1.65;;
72569;SDS011;60594;50.204;8.844;2022-10-16T14:37:26;3.90;;;1.98;;
72569;SDS011;60594;50.204;8.844;2022-10-16T14:39:54;3.63;;;1.90;;
72569;SDS011;60594;50.204;8.844;2022-10-16T14:42:22;3.67;;;1.90;;
72569;SDS011;60594;50.204;8.844;2022-10-16T14:44:51;3.88;;;1.80;;
72569;SDS011;60594;50.204;8.844;2022-10-16T14:47:23;4.00;;;1.55;;
72569;SDS011;60594;50.204;8.844;2022-10-16T14:49:52;4.55;;;1.73;;
72569;SDS011;60594;50.204;8.844;2022-10-16T14:52:25;4.78;;;2.15;;
72569;SDS011;60594;50.204;8.844;2022-10-16T14:54:51;3.45;;;1.73;;
72569;SDS011;60594;50.204;8.844;2022-10-16T14:57:23;4.32;;;2.03;;
72569;SDS011;60594;50.204;8.844;2022-10-16T14:59:51;3.25;;;1.70;;
72569;SDS011;60594;50.204;8.844;2022-10-16T15:02:31;3.70;;;1.80;;
72569;SDS011;60594;50.204;8.844;2022-10-16T15:05:19;4.03;;;2.20;;
72569;SDS011;60594;50.204;8.844;2022-10-16T15:07:52;4.43;;;2.40;;
72569;SDS011;60594;50.204;8.844;2022-10-16T15:12:48;3.90;;;1.85;;
72569;SDS011;60594;50.204;8.844;2022-10-16T15:15:16;3.75;;;1.92;;
72569;SDS011;60594;50.204;8.844;2022-10-16T15:17:55;3.47;;;1.75;;
72569;SDS011;60594;50.204;8.844;2022-10-16T15:20:23;3.75;;;1.92;;
72569;SDS011;60594;50.204;8.844;2022-10-16T15:22:50;4.57;;;2.72;;
72569;SDS011;60594;50.204;8.844;2022-10-16T15:27:47;5.95;;;3.38;;
72569;SDS011;60594;50.204;8.844;2022-10-16T15:30:14;4.80;;;2.80;;
72569;SDS011;60594;50.204;8.844;2022-10-16T15:32:40;5.15;;;2.80;;
72569;SDS011;60594;50.204;8.844;2022-10-16T15:35:10;3.53;;;1.70;;
72569;SDS011;60594;50.204;8.844;2022-10-16T15:37:37;4.80;;;2.05;;
72569;SDS011;60594;50.204;8.844;2022-10-16T15:40:03;4.45;;;2.70;;
72569;SDS011;60594;50.204;8.844;2022-10-16T15:42:32;4.20;;;2.30;;
72569;SDS011;60594;50.204;8.844;2022-10-16T15:44:58;4.10;;;2.40;;
72569;SDS011;60594;50.204;8.844;2022-10-16T15:47:25;5.38;;;2.50;;
72569;SDS011;60594;50.204;8.844;2022-10-16T15:49:51;5.32;;;2.45;;
72569;SDS011;60594;50.204;8.844;2022-10-16T15:52:18;4.35;;;1.92;;
72569;SDS011;60594;50.204;8.844;2022-10-16T15:54:44;4.57;;;2.28;;
72569;SDS011;60594;50.204;8.844;2022-10-16T15:57:10;4.95;;;2.60;;
72569;SDS011;60594;50.204;8.844;2022-10-16T15:59:37;3.85;;;2.25;;
72569;SDS011;60594;50.204;8.844;2022-10-16T16:02:03;4.40;;;2.15;;
72569;SDS011;60594;50.204;8.844;2022-10-16T16:04:30;5.82;;;2.45;;
72569;SDS011;60594;50.204;8.844;2022-10-16T16:06:58;5.47;;;2.45;;
72569;SDS011;60594;50.204;8.844;2022-10-16T16:09:24;5.85;;;3.05;;
72569;SDS011;60594;50.204;8.844;2022-10-16T16:11:51;7.28;;;4.50;;
72569;SDS011;60594;50.204;8.844;2022-10-16T16:14:18;6.50;;;3.53;;
72569;SDS011;60594;50.204;8.844;2022-10-16T16:16:44;7.05;;;4.90;;
72569;SDS011;60594;50.204;8.844;2022-10-16T16:19:11;7.35;;;4.38;;
72569;SDS011;60594;50.204;8.844;2022-10-16T16:21:38;6.43;;;4.22;;
72569;SDS011;60594;50.204;8.844;2022-10-16T16:24:07;5.43;;;3.00;;
72569;SDS011;60594;50.204;8.844;2022-10-16T16:26:34;6.63;;;2.70;;
72569;SDS011;60594;50.204;8.844;2022-10-16T16:29:06;4.40;;;2.67;;
72569;SDS011;60594;50.204;8.844;2022-10-16T16:31:33;5.60;;;3.00;;
72569;SDS011;60594;50.204;8.844;2022-10-16T16:34:00;5.63;;;2.70;;
72569;SDS011;60594;50.204;8.844;2022-10-16T16:36:27;4.47;;;2.65;;
72569;SDS011;60594;50.204;8.844;2022-10-16T16:38:53;4.88;;;2.70;;
72569;SDS011;60594;50.204;8.844;2022-10-16T16:41:22;5.43;;;2.78;;
72569;SDS011;60594;50.204;8.844;2022-10-16T16:43:52;4.75;;;2.20;;
72569;SDS011;60594;50.204;8.844;2022-10-16T16:46:21;5.57;;;2.10;;
72569;SDS011;60594;50.204;8.844;2022-10-16T16:48:48;3.70;;;2.13;;
72569;SDS011;60594;50.204;8.844;2022-10-16T16:51:21;4.45;;;2.22;;
72569;SDS011;60594;50.204;8.844;2022-10-16T16:53:49;4.82;;;2.17;;
72569;SDS011;60594;50.204;8.844;2022-10-16T16:56:17;4.05;;;2.13;;
72569;SDS011;60594;50.204;8.844;2022-10-16T16:58:45;4.90;;;3.10;;
72569;SDS011;60594;50.204;8.844;2022-10-16T17:01:13;3.65;;;2.05;;
72569;SDS011;60594;50.204;8.844;2022-10-16T17:03:41;4.45;;;2.28;;
72569;SDS011;60594;50.204;8.844;2022-10-16T17:06:13;4.43;;;2.47;;
72569;SDS011;60594;50.204;8.844;2022-10-16T17:08:40;6.03;;;3.58;;